Time;durP1;ratioP1;P1;durP2;ratioP2;P2;SDS_P1;SDS_P2;PMS_P1;PMS_P2;Temp;Humidity;BMP_temperature;BMP_pressure;BME280_temperature;BME280_humidity;BME280_pressure;Samples;Min_cycle;Max_cycle;Signal;HPM_P1;HPM_P2
2021/01/24 00:00:14;;;;;;;22.50;10.82;;;;;;;-0.42;100.00;98977.88;5042284;28;20071;-52
2021/01/24 00:02:42;;;;;;;19.77;11.25;;;;;;;-0.53;100.00;98974.38;5045163;28;20443;-52
2021/01/24 00:05:09;;;;;;;20.45;10.82;;;;;;;-0.47;100.00;98975.63;5049346;28;20050;-51
2021/01/24 00:07:36;;;;;;;20.00;11.00;;;;;;;-0.51;100.00;98971.66;5044363;28;20500;-50
2021/01/24 00:10:04;;;;;;;23.42;9.60;;;;;;;-0.54;100.00;98979.78;5037512;28;20063;-50
2021/01/24 00:12:31;;;;;;;14.52;7.82;;;;;;;-0.52;100.00;98975.25;5043066;28;20066;-51
2021/01/24 00:14:58;;;;;;;17.23;8.73;;;;;;;-0.53;100.00;98973.56;5047390;28;20492;-51
2021/01/24 00:17:25;;;;;;;16.45;8.82;;;;;;;-0.46;100.00;98982.53;5045204;28;20068;-51
2021/01/24 00:19:53;;;;;;;18.33;8.50;;;;;;;-0.55;100.00;98983.38;5045948;28;20043;-51
2021/01/24 00:22:20;;;;;;;16.02;8.63;;;;;;;-0.45;100.00;98978.16;5046019;28;20048;-53
2021/01/24 00:24:46;;;;;;;15.18;7.80;;;;;;;-0.52;100.00;98976.06;5043620;28;20037;-46
2021/01/24 00:27:13;;;;;;;16.38;8.27;;;;;;;-0.48;100.00;98986.25;5045055;28;20040;-54
2021/01/24 00:29:40;;;;;;;17.20;8.82;;;;;;;-0.53;100.00;98989.31;5042595;28;20041;-50
2021/01/24 00:32:08;;;;;;;21.08;9.65;;;;;;;-0.56;100.00;98985.16;5036609;28;20305;-52
2021/01/24 00:34:35;;;;;;;17.13;8.20;;;;;;;-0.48;100.00;98989.75;5042002;28;20041;-54
2021/01/24 00:37:03;;;;;;;17.90;9.35;;;;;;;-0.56;100.00;98990.41;5042833;28;20340;-53
2021/01/24 00:39:30;;;;;;;20.45;9.32;;;;;;;-0.43;100.00;99002.44;5041383;28;20033;-53
2021/01/24 00:41:57;;;;;;;20.63;9.55;;;;;;;-0.47;100.00;98994.00;5038384;28;20461;-51
2021/01/24 00:44:24;;;;;;;25.73;9.32;;;;;;;-0.54;100.00;98995.50;5050265;28;20440;-51
2021/01/24 00:46:51;;;;;;;24.33;11.20;;;;;;;-0.53;100.00;98999.78;5044296;28;20048;-49
2021/01/24 00:49:18;;;;;;;23.45;10.00;;;;;;;-0.53;100.00;99000.63;5043512;28;20459;-53
2021/01/24 00:51:45;;;;;;;16.88;8.90;;;;;;;-0.57;100.00;99006.28;5041487;28;20044;-52
2021/01/24 00:54:13;;;;;;;18.50;9.70;;;;;;;-0.52;100.00;99006.72;5040565;28;20037;-53
2021/01/24 00:56:40;;;;;;;17.98;9.48;;;;;;;-0.58;100.00;99009.84;5043734;28;20048;-53
2021/01/24 00:59:07;;;;;;;22.17;10.38;;;;;;;-0.59;100.00;99009.03;5044068;28;20041;-53
2021/01/24 01:01:33;;;;;;;22.33;11.07;;;;;;;-0.49;100.00;99009.06;5046322;28;20052;-54
2021/01/24 01:04:00;;;;;;;20.52;11.07;;;;;;;-0.46;100.00;99019.25;5044751;28;20118;-53
2021/01/24 01:06:27;;;;;;;27.00;14.68;;;;;;;-0.50;100.00;99023.13;5041042;28;20041;-53
2021/01/24 01:08:54;;;;;;;20.83;12.80;;;;;;;-0.49;100.00;99024.78;5042014;28;20052;-54
2021/01/24 01:11:22;;;;;;;22.63;11.48;;;;;;;-0.45;100.00;99030.59;5046440;28;20045;-54
2021/01/24 01:13:50;;;;;;;20.23;9.38;;;;;;;-0.46;100.00;99029.75;5043714;28;20041;-51
2021/01/24 01:16:17;;;;;;;22.55;11.68;;;;;;;-0.39;100.00;99035.28;5044146;28;20048;-54
2021/01/24 01:18:44;;;;;;;21.80;10.35;;;;;;;-0.42;100.00;99035.56;5039657;28;20045;-53
2021/01/24 01:21:11;;;;;;;19.13;11.38;;;;;;;-0.40;100.00;99047.59;5041106;28;20080;-53
2021/01/24 01:23:38;;;;;;;21.20;8.85;;;;;;;-0.36;100.00;99035.84;5045095;28;20393;-52
2021/01/24 01:26:05;;;;;;;20.40;9.75;;;;;;;-0.41;100.00;99047.69;5045994;28;20041;-54
2021/01/24 01:28:33;;;;;;;22.13;9.95;;;;;;;-0.33;100.00;99041.78;5047800;28;20099;-54
2021/01/24 01:31:00;;;;;;;21.23;11.90;;;;;;;-0.32;100.00;99048.69;5051404;28;20623;-53
2021/01/24 01:33:27;;;;;;;22.65;12.80;;;;;;;-0.26;100.00;99053.38;5044970;28;20048;-54
2021/01/24 01:35:54;;;;;;;24.13;13.27;;;;;;;-0.26;100.00;99053.38;5049975;28;20044;-53
2021/01/24 01:38:21;;;;;;;23.27;11.82;;;;;;;-0.11;100.00;99059.91;5047463;28;20045;-54
2021/01/24 01:40:51;;;;;;;23.60;10.93;;;;;;;-0.16;100.00;99061.28;5045222;28;20048;-53
2021/01/24 01:43:18;;;;;;;18.40;10.25;;;;;;;-0.16;100.00;99069.97;5049197;28;20109;-54
2021/01/24 01:45:45;;;;;;;21.05;11.32;;;;;;;-0.14;100.00;99091.66;5046274;28;20056;-55
2021/01/24 01:48:12;;;;;;;22.33;11.32;;;;;;;-0.14;100.00;99090.81;5050210;28;20092;-55
2021/01/24 01:50:39;;;;;;;19.33;11.50;;;;;;;-0.19;100.00;99083.38;5049925;28;20041;-53
2021/01/24 01:53:06;;;;;;;22.50;12.52;;;;;;;-0.20;100.00;99093.03;5044193;28;20044;-55
2021/01/24 01:55:33;;;;;;;26.95;12.70;;;;;;;-0.24;100.00;99088.19;5045981;28;20447;-56
2021/01/24 01:58:00;;;;;;;24.05;13.43;;;;;;;-0.24;100.00;99089.03;5046578;28;20045;-50
2021/01/24 02:00:27;;;;;;;25.00;12.32;;;;;;;-0.23;100.00;99092.47;5056453;28;20052;-52
2021/01/24 02:03:09;;;;;;;27.60;14.45;;;;;;;-0.25;100.00;99097.03;5047573;28;20045;-53
2021/01/24 02:05:43;;;;;;;27.92;14.15;;;;;;;-0.26;100.00;99105.88;5046138;28;20448;-54
2021/01/24 02:08:13;;;;;;;26.48;13.60;;;;;;;-0.27;100.00;99101.56;5047137;28;20036;-55
2021/01/24 02:10:44;;;;;;;25.63;13.23;;;;;;;-0.32;100.00;99098.53;5040561;28;20041;-53
2021/01/24 02:13:22;;;;;;;26.92;14.00;;;;;;;-0.32;100.00;99103.78;5046850;28;20055;-51
2021/01/24 02:15:49;;;;;;;29.58;15.45;;;;;;;-0.30;100.00;99102.66;5044882;28;20040;-55
2021/01/24 02:18:17;;;;;;;26.38;13.32;;;;;;;-0.29;100.00;99108.75;5040843;28;20045;-54
2021/01/24 02:20:47;;;;;;;23.92;11.90;;;;;;;-0.29;100.00;99100.88;5047970;28;20052;-54
2021/01/24 02:23:16;;;;;;;25.00;11.68;;;;;;;-0.27;100.00;99104.19;5047854;28;20048;-53
2021/01/24 02:25:47;;;;;;;21.83;11.10;;;;;;;-0.27;100.00;99107.66;5041111;28;20421;-53
2021/01/24 02:28:23;;;;;;;24.65;11.52;;;;;;;-0.30;100.00;99109.72;5048290;28;20045;-55
2021/01/24 02:30:52;;;;;;;20.83;11.80;;;;;;;-0.27;100.00;99119.94;5045602;28;20115;-55
2021/01/24 02:33:22;;;;;;;26.02;11.10;;;;;;;-0.25;100.00;99131.16;5042811;28;20037;-54
2021/01/24 02:35:52;;;;;;;24.42;11.50;;;;;;;-0.27;100.00;99133.06;5044455;28;20068;-53
2021/01/24 02:38:20;;;;;;;23.60;11.88;;;;;;;-0.25;100.00;99131.16;5041352;28;20045;-54
2021/01/24 02:40:47;;;;;;;25.13;11.52;;;;;;;-0.28;100.00;99127.00;5048988;28;20456;-55
2021/01/24 02:43:15;;;;;;;24.02;13.20;;;;;;;-0.17;100.00;99139.19;5044959;28;20396;-54
2021/01/24 02:45:43;;;;;;;20.13;10.73;;;;;;;-0.20;100.00;99139.41;5047004;28;20421;-54
2021/01/24 02:48:13;;;;;;;21.23;10.60;;;;;;;-0.19;100.00;99141.91;5046046;28;20041;-53
2021/01/24 02:50:41;;;;;;;17.23;9.00;;;;;;;-0.13;100.00;99137.91;5046296;28;20068;-53
2021/01/24 02:53:09;;;;;;;20.13;10.57;;;;;;;-0.18;100.00;99148.00;5041493;28;20041;-53
2021/01/24 02:55:38;;;;;;;20.70;11.73;;;;;;;-0.19;100.00;99151.59;5046272;28;20049;-50
2021/01/24 02:58:05;;;;;;;20.50;10.18;;;;;;;-0.20;100.00;99148.13;5044522;28;20338;-53
2021/01/24 03:00:32;;;;;;;22.40;10.43;;;;;;;-0.24;100.00;99159.88;5046593;28;20053;-53
2021/01/24 03:02:59;;;;;;;26.33;13.32;;;;;;;-0.22;100.00;99167.59;5045835;28;20037;-53
2021/01/24 03:05:27;;;;;;;22.85;11.25;;;;;;;-0.19;100.00;99155.03;5041230;28;20468;-54
2021/01/24 03:07:55;;;;;;;24.45;11.05;;;;;;;-0.19;100.00;99154.22;5047147;28;20079;-53
2021/01/24 03:10:22;;;;;;;23.63;11.43;;;;;;;-0.17;100.00;99154.91;5049170;28;20053;-53
2021/01/24 03:12:52;;;;;;;22.98;10.73;;;;;;;-0.17;100.00;99157.53;5041757;28;20076;-53
2021/01/24 03:15:22;;;;;;;31.02;13.40;;;;;;;-0.17;100.00;99162.78;5048990;28;20350;-54
2021/01/24 03:17:49;;;;;;;27.48;11.32;;;;;;;-0.20;100.00;99169.13;5044171;28;20037;-52
2021/01/24 03:20:16;;;;;;;19.80;10.38;;;;;;;-0.27;100.00;99164.53;5045538;28;20132;-50
2021/01/24 03:22:45;;;;;;;26.08;12.20;;;;;;;-0.36;100.00;99172.25;5042826;28;20128;-48
2021/01/24 03:25:13;;;;;;;20.65;9.63;;;;;;;-0.20;100.00;99182.25;5045208;28;20044;-52
2021/01/24 03:27:41;;;;;;;22.38;10.45;;;;;;;-0.24;100.00;99177.38;5038986;28;20056;-49
2021/01/24 03:30:09;;;;;;;21.85;11.00;;;;;;;-0.18;100.00;99182.13;5044183;28;20036;-51
2021/01/24 03:32:36;;;;;;;21.95;12.10;;;;;;;-0.08;100.00;99176.91;5039862;28;20056;-52
2021/01/24 03:35:03;;;;;;;18.73;9.88;;;;;;;-0.07;100.00;99183.78;5041339;28;20628;-48
2021/01/24 03:37:31;;;;;;;18.25;8.98;;;;;;;-0.01;100.00;99189.31;5047200;28;20041;-53
2021/01/24 03:39:59;;;;;;;23.40;9.90;;;;;;;-0.05;100.00;99182.69;5047072;28;20049;-47
2021/01/24 03:42:28;;;;;;;17.20;8.57;;;;;;;-0.09;100.00;99189.16;5043125;28;20061;-50
2021/01/24 03:44:55;;;;;;;24.95;12.98;;;;;;;-0.03;100.00;99185.19;5047788;28;20037;-49
2021/01/24 03:47:22;;;;;;;22.45;10.88;;;;;;;-0.04;100.00;99192.22;5040262;28;20068;-49
2021/01/24 03:49:49;;;;;;;19.58;9.77;;;;;;;-0.10;100.00;99189.31;5043684;28;20045;-51
2021/01/24 03:52:16;;;;;;;18.40;8.95;;;;;;;-0.02;100.00;99198.16;5041790;28;20049;-49
2021/01/24 03:54:43;;;;;;;19.77;8.85;;;;;;;-0.09;100.00;99198.84;5045647;28;21252;-50
2021/01/24 03:57:11;;;;;;;20.70;9.95;;;;;;;-0.17;100.00;99189.03;5044391;28;20048;-49
2021/01/24 03:59:38;;;;;;;24.95;9.93;;;;;;;-0.23;100.00;99200.03;5043901;28;20427;-51
2021/01/24 04:02:05;;;;;;;24.05;7.78;;;;;;;-0.24;100.00;99201.00;5043373;28;20044;-48
2021/01/24 04:04:32;;;;;;;13.45;7.22;;;;;;;-0.24;100.00;99214.13;5046354;28;20044;-54
2021/01/24 04:06:59;;;;;;;14.88;8.13;;;;;;;-0.29;100.00;99213.69;5047007;28;20045;-48
2021/01/24 04:09:26;;;;;;;17.38;8.75;;;;;;;-0.29;100.00;99214.53;5045021;28;20413;-50
2021/01/24 04:11:53;;;;;;;16.92;7.70;;;;;;;-0.35;100.00;99210.63;5039999;28;20311;-53
2021/01/24 04:14:20;;;;;;;15.82;7.50;;;;;;;-0.23;100.00;99213.16;5047877;28;20052;-48
2021/01/24 04:16:47;;;;;;;12.98;6.85;;;;;;;-0.28;100.00;99215.38;5042734;28;20381;-53
2021/01/24 04:19:14;;;;;;;18.70;8.55;;;;;;;-0.30;100.00;99217.28;5052434;28;20306;-52
2021/01/24 04:21:41;;;;;;;16.60;7.00;;;;;;;-0.37;100.00;99223.06;5041746;28;20045;-50
2021/01/24 04:24:11;;;;;;;15.75;6.68;;;;;;;-0.41;100.00;99232.16;5043331;28;20029;-53
2021/01/24 04:26:38;;;;;;;15.30;7.90;;;;;;;-0.46;100.00;99234.34;5047631;28;20124;-48
2021/01/24 04:29:05;;;;;;;18.80;10.00;;;;;;;-0.40;100.00;99233.81;5043549;28;20037;-53
2021/01/24 04:31:33;;;;;;;18.60;8.82;;;;;;;-0.46;100.00;99239.56;5039100;28;20053;-50
2021/01/24 04:34:00;;;;;;;21.73;9.23;;;;;;;-0.43;100.00;99241.94;5043704;28;20493;-50
2021/01/24 04:36:29;;;;;;;17.60;9.35;;;;;;;-0.52;100.00;99242.72;5046349;28;20049;-48
2021/01/24 04:38:56;;;;;;;25.33;11.60;;;;;;;-0.55;100.00;99249.06;5040581;28;20429;-53
2021/01/24 04:41:23;;;;;;;27.00;10.93;;;;;;;-0.54;100.00;99245.50;5046215;28;20067;-53
2021/01/24 04:43:51;;;;;;;24.98;11.00;;;;;;;-0.47;100.00;99250.19;5037523;28;20176;-53
2021/01/24 04:46:17;;;;;;;23.23;11.52;;;;;;;-0.58;100.00;99257.19;5040781;28;20448;-52
2021/01/24 04:48:46;;;;;;;20.65;10.07;;;;;;;-0.43;100.00;99251.59;5045247;28;20045;-53
2021/01/24 04:51:13;;;;;;;20.23;11.05;;;;;;;-0.45;100.00;99256.16;5042363;28;20049;-52
2021/01/24 04:53:40;;;;;;;18.55;8.93;;;;;;;-0.51;100.00;99257.53;5044513;28;20363;-55
2021/01/24 04:56:07;;;;;;;24.73;11.77;;;;;;;-0.52;100.00;99261.91;5041572;28;20330;-55
2021/01/24 04:58:35;;;;;;;16.52;9.20;;;;;;;-0.44;100.00;99263.91;5039764;28;20059;-54
2021/01/24 05:01:02;;;;;;;17.15;9.85;;;;;;;-0.53;100.00;99262.88;5045431;28;20350;-56
2021/01/24 05:03:30;;;;;;;18.10;9.27;;;;;;;-0.51;100.00;99265.38;5046478;28;20044;-55
2021/01/24 05:05:58;;;;;;;23.13;10.15;;;;;;;-0.47;100.00;99269.38;5047215;28;20040;-54
2021/01/24 05:08:25;;;;;;;19.73;9.43;;;;;;;-0.67;100.00;99275.50;5045392;28;20041;-54
2021/01/24 05:10:54;;;;;;;18.92;7.65;;;;;;;-0.44;100.00;99269.16;5049179;28;20056;-55
2021/01/24 05:13:26;;;;;;;23.35;10.77;;;;;;;-0.47;100.00;99274.63;5045692;28;20052;-56
2021/01/24 05:15:55;;;;;;;18.27;10.30;;;;;;;-0.56;100.00;99280.66;5042765;28;20033;-56
2021/01/24 05:18:26;;;;;;;22.17;9.68;;;;;;;-0.58;100.00;99269.47;5049497;28;20400;-56
2021/01/24 05:20:53;;;;;;;20.70;10.93;;;;;;;-0.51;100.00;99270.63;5047372;28;20049;-56
2021/01/24 05:23:21;;;;;;;19.30;11.20;;;;;;;-0.58;100.00;99274.69;5044596;28;20041;-55
2021/01/24 05:25:48;;;;;;;22.75;8.85;;;;;;;-0.59;100.00;99268.63;5044792;28;20040;-55
2021/01/24 05:28:19;;;;;;;22.27;11.02;;;;;;;-0.66;100.00;99275.38;5048774;28;20036;-55
2021/01/24 05:30:46;;;;;;;21.25;11.07;;;;;;;-0.68;100.00;99282.53;5048084;28;20056;-54
2021/01/24 05:33:17;;;;;;;22.02;10.57;;;;;;;-0.73;100.00;99277.66;5045551;28;20294;-52
2021/01/24 05:35:48;;;;;;;21.27;9.43;;;;;;;-0.61;100.00;99278.44;5051188;28;20041;-52
2021/01/24 05:38:27;;;;;;;20.90;9.07;;;;;;;-0.69;100.00;99275.63;5045972;28;20154;-54
2021/01/24 05:40:55;;;;;;;19.30;9.95;;;;;;;-0.80;100.00;99279.13;5043034;28;20336;-53
2021/01/24 05:43:25;;;;;;;20.95;10.20;;;;;;;-0.60;100.00;99271.41;5050125;28;20045;-54
2021/01/24 05:45:53;;;;;;;18.25;10.02;;;;;;;-0.56;100.00;99278.88;5043941;28;20051;-55
2021/01/24 05:48:20;;;;;;;19.45;9.18;;;;;;;-0.58;100.00;99272.94;5042904;28;20433;-54
2021/01/24 05:50:47;;;;;;;19.25;8.98;;;;;;;-0.67;100.00;99280.72;5049663;28;20041;-53
2021/01/24 05:53:15;;;;;;;16.90;9.68;;;;;;;-0.58;100.00;99275.56;5050308;28;20172;-54
2021/01/24 05:55:44;;;;;;;20.15;8.77;;;;;;;-0.70;100.00;99280.03;5050014;28;20043;-55
2021/01/24 05:58:18;;;;;;;22.15;8.82;;;;;;;-0.64;100.00;99281.28;5046683;28;20036;-56
2021/01/24 06:00:47;;;;;;;18.67;8.55;;;;;;;-0.62;100.00;99289.88;5044314;28;20064;-57
2021/01/24 06:03:15;;;;;;;17.50;8.48;;;;;;;-0.72;100.00;99295.06;5044326;28;20128;-55
2021/01/24 06:05:42;;;;;;;18.38;9.05;;;;;;;-0.77;100.00;99297.22;5045359;28;20333;-54
2021/01/24 06:08:10;;;;;;;20.17;8.43;;;;;;;-0.73;100.00;99305.69;5045325;28;20059;-54
2021/01/24 06:10:37;;;;;;;17.45;9.63;;;;;;;-0.75;100.00;99308.44;5049398;28;20060;-53
2021/01/24 06:13:05;;;;;;;18.60;9.80;;;;;;;-0.94;100.00;99316.13;5043024;28;20044;-55
2021/01/24 06:15:36;;;;;;;17.05;8.82;;;;;;;-0.86;100.00;99305.88;5047176;28;20037;-54
2021/01/24 06:18:10;;;;;;;17.33;9.07;;;;;;;-0.68;100.00;99311.38;5043145;28;20053;-52
2021/01/24 06:20:39;;;;;;;18.38;8.23;;;;;;;-0.78;100.00;99320.94;5045950;28;20387;-54
2021/01/24 06:23:11;;;;;;;17.27;8.90;;;;;;;-0.86;100.00;99321.59;5043765;28;20048;-52
2021/01/24 06:25:40;;;;;;;16.75;8.75;;;;;;;-0.83;100.00;99321.34;5050874;28;20068;-51
2021/01/24 06:28:10;;;;;;;15.35;8.43;;;;;;;-0.94;100.00;99332.69;5042286;28;20064;-55
2021/01/24 06:30:37;;;;;;;18.35;11.05;;;;;;;-0.88;100.00;99318.25;5044736;28;20052;-53
2021/01/24 06:33:15;;;;;;;17.08;9.05;;;;;;;-0.83;100.00;99331.00;5042467;28;20045;-55
2021/01/24 06:35:49;;;;;;;17.45;8.68;;;;;;;-0.90;100.00;99331.47;5041701;28;20041;-52
2021/01/24 06:38:27;;;;;;;18.08;9.70;;;;;;;-0.99;100.00;99331.41;5048450;28;20049;-54
2021/01/24 06:40:55;;;;;;;23.23;10.30;;;;;;;-0.99;100.00;99326.16;5045871;28;20042;-55
2021/01/24 06:43:38;;;;;;;19.40;9.52;;;;;;;-1.02;100.00;99334.28;5044655;28;20155;-54
2021/01/24 06:46:06;;;;;;;20.52;10.85;;;;;;;-1.10;100.00;99333.13;5046355;28;20044;-55
2021/01/24 06:48:43;;;;;;;19.73;9.43;;;;;;;-1.05;100.00;99335.34;5045238;28;20048;-55
2021/01/24 06:51:35;;;;;;;19.40;11.02;;;;;;;-1.18;100.00;99339.94;5044142;28;20115;-54
2021/01/24 06:54:04;;;;;;;20.63;10.63;;;;;;;-1.25;100.00;99340.44;5038693;28;20486;-53
2021/01/24 06:56:39;;;;;;;22.83;10.65;;;;;;;-1.33;100.00;99355.09;5045112;28;20040;-54
2021/01/24 06:59:07;;;;;;;22.23;9.80;;;;;;;-1.39;100.00;99349.41;5043029;28;20048;-54
2021/01/24 07:01:35;;;;;;;24.25;11.45;;;;;;;-1.31;100.00;99366.28;5045298;28;20045;-55
2021/01/24 07:04:41;;;;;;;29.80;13.15;;;;;;;-1.34;100.00;99375.22;5041881;28;20412;-55
2021/01/24 07:07:30;;;;;;;26.90;13.40;;;;;;;-1.35;100.00;99368.31;5043364;28;20099;-53
2021/01/24 07:09:57;;;;;;;24.02;11.90;;;;;;;-1.39;100.00;99372.97;5044191;28;20049;-54
2021/01/24 07:12:38;;;;;;;24.15;11.02;;;;;;;-1.46;100.00;99371.78;5042627;28;20045;-52
2021/01/24 07:15:08;;;;;;;27.38;11.90;;;;;;;-1.58;100.00;99370.94;5045785;28;20036;-53
2021/01/24 07:17:36;;;;;;;21.52;11.60;;;;;;;-1.46;100.00;99378.78;5044484;28;20044;-54
2021/01/24 07:20:05;;;;;;;24.17;11.43;;;;;;;-1.53;100.00;99375.00;5044553;28;20037;-55
2021/01/24 07:22:33;;;;;;;22.30;11.60;;;;;;;-1.48;100.00;99384.16;5041373;28;20061;-54
2021/01/24 07:25:00;;;;;;;26.40;13.48;;;;;;;-1.47;100.00;99390.25;5044945;28;20037;-53
2021/01/24 07:27:28;;;;;;;26.80;13.05;;;;;;;-1.42;100.00;99381.06;5042854;28;20064;-52
2021/01/24 07:29:56;;;;;;;25.80;11.63;;;;;;;-1.48;100.00;99389.41;5039896;28;20042;-53
2021/01/24 07:32:24;;;;;;;25.98;11.75;;;;;;;-1.52;100.00;99397.63;5038926;28;20043;-55
2021/01/24 07:34:53;;;;;;;24.50;12.40;;;;;;;-1.67;100.00;99404.88;5039841;28;20061;-52
2021/01/24 07:37:23;;;;;;;30.63;13.45;;;;;;;-1.71;100.00;99411.31;5043972;28;20210;-54
2021/01/24 07:39:52;;;;;;;28.73;14.23;;;;;;;-1.78;100.00;99411.78;5043208;28;20032;-51
2021/01/24 07:42:19;;;;;;;26.60;12.98;;;;;;;-1.84;100.00;99414.88;5036764;28;20608;-53
2021/01/24 07:44:46;;;;;;;22.40;11.82;;;;;;;-1.88;100.00;99413.44;5043843;28;20045;-53
2021/01/24 07:47:15;;;;;;;23.15;12.40;;;;;;;-1.84;100.00;99425.34;5037752;28;20044;-54
2021/01/24 07:49:43;;;;;;;32.05;15.07;;;;;;;-1.82;100.00;99418.19;5045925;28;20299;-53
2021/01/24 07:52:11;;;;;;;26.17;12.80;;;;;;;-1.77;100.00;99423.91;5046574;28;20365;-53
2021/01/24 07:54:38;;;;;;;28.40;12.90;;;;;;;-1.66;100.00;99430.09;5042219;28;20049;-51
2021/01/24 07:57:06;;;;;;;27.00;12.48;;;;;;;-1.61;100.00;99425.34;5041218;28;20045;-51
2021/01/24 07:59:33;;;;;;;30.13;12.55;;;;;;;-1.68;100.00;99432.03;5042076;28;20648;-54
2021/01/24 08:02:00;;;;;;;28.27;13.63;;;;;;;-1.63;100.00;99427.25;5039834;28;20060;-55
2021/01/24 08:04:27;;;;;;;23.23;12.68;;;;;;;-1.68;100.00;99435.47;5048212;28;20052;-53
2021/01/24 08:06:55;;;;;;;27.65;12.73;;;;;;;-1.57;100.00;99434.66;5040133;28;20409;-54
2021/01/24 08:09:22;;;;;;;27.77;12.75;;;;;;;-1.34;100.00;99440.69;5043776;28;20072;-53
2021/01/24 08:11:49;;;;;;;27.90;13.80;;;;;;;-1.12;100.00;99441.63;5035579;28;20569;-53
2021/01/24 08:14:16;;;;;;;26.27;12.23;;;;;;;-0.94;100.00;99439.31;5041989;28;20517;-54
2021/01/24 08:16:46;;;;;;;19.90;10.80;;;;;;;-0.92;100.00;99442.63;5043531;28;20059;-52
2021/01/24 08:19:16;;;;;;;28.25;12.70;;;;;;;-0.93;100.00;99438.38;5041707;28;20045;-54
2021/01/24 08:21:43;;;;;;;25.30;11.60;;;;;;;-0.83;100.00;99446.34;5037578;28;20532;-54
2021/01/24 08:24:11;;;;;;;22.10;12.05;;;;;;;-0.92;100.00;99440.88;5038543;28;20349;-54
2021/01/24 08:26:38;;;;;;;24.10;11.00;;;;;;;-0.88;100.00;99446.69;5040740;28;20052;-53
2021/01/24 08:29:05;;;;;;;26.35;11.77;;;;;;;-0.77;100.00;99451.91;5040607;28;20041;-53
2021/01/24 08:31:34;;;;;;;25.92;12.43;;;;;;;-0.90;100.00;99449.44;5038268;28;20079;-54
2021/01/24 08:34:02;;;;;;;22.52;12.10;;;;;;;-0.83;100.00;99452.41;5037956;28;20041;-53
2021/01/24 08:36:30;;;;;;;29.67;12.32;;;;;;;-0.83;100.00;99455.03;5039704;28;20532;-54
2021/01/24 08:38:59;;;;;;;26.20;11.40;;;;;;;-0.72;100.00;99452.38;5038439;28;20041;-54
2021/01/24 08:41:30;;;;;;;21.83;10.68;;;;;;;-0.45;100.00;99450.25;5041040;28;20091;-52
2021/01/24 08:44:04;;;;;;;17.38;9.57;;;;;;;-0.29;100.00;99450.66;5040075;28;20056;-54
2021/01/24 08:46:36;;;;;;;21.17;11.00;;;;;;;-0.40;100.00;99448.94;5041292;28;20049;-52
2021/01/24 08:49:06;;;;;;;22.50;10.00;;;;;;;-0.38;100.00;99449.63;5024258;28;20461;-53
2021/01/24 08:51:44;;;;;;;21.77;11.07;;;;;;;-0.31;100.00;99449.09;5040818;28;20267;-55
2021/01/24 08:54:15;;;;;;;21.67;9.70;;;;;;;-0.12;100.00;99453.69;5037356;28;20046;-54
2021/01/24 08:56:43;;;;;;;19.10;10.07;;;;;;;-0.01;100.00;99462.31;5039994;28;20048;-55
2021/01/24 08:59:17;;;;;;;17.98;9.48;;;;;;;0.09;100.00;99466.81;5035413;28;20046;-55
2021/01/24 09:01:44;;;;;;;17.98;8.93;;;;;;;0.15;100.00;99471.53;5035993;28;20049;-55
2021/01/24 09:04:19;;;;;;;19.15;9.68;;;;;;;0.35;100.00;99477.72;5036819;28;20052;-55
2021/01/24 09:06:59;;;;;;;23.08;11.57;;;;;;;0.23;99.79;99478.75;5038812;28;20045;-53
2021/01/24 09:09:26;;;;;;;22.35;9.60;;;;;;;0.47;98.92;99478.50;5040997;28;20389;-53
2021/01/24 09:11:54;;;;;;;17.52;9.43;;;;;;;0.54;98.26;99470.91;5038712;28;20380;-52
2021/01/24 09:14:21;;;;;;;20.00;9.27;;;;;;;0.45;97.83;99469.91;5036928;28;20059;-56
2021/01/24 09:17:00;;;;;;;22.35;10.15;;;;;;;0.42;97.48;99465.72;5040035;28;20048;-54
2021/01/24 09:19:28;;;;;;;17.63;8.50;;;;;;;0.57;97.09;99466.22;5041383;28;20053;-55
2021/01/24 09:21:55;;;;;;;17.05;7.88;;;;;;;0.73;96.38;99462.28;5039814;28;20037;-54
2021/01/24 09:24:22;;;;;;;17.10;8.38;;;;;;;0.94;95.74;99462.22;5043880;28;20044;-54
2021/01/24 09:26:49;;;;;;;21.08;8.85;;;;;;;1.07;95.08;99452.25;5044119;28;20045;-56
2021/01/24 09:29:17;;;;;;;17.90;9.82;;;;;;;1.20;94.68;99455.50;5042605;28;20467;-54
2021/01/24 09:31:44;;;;;;;18.42;9.82;;;;;;;1.10;94.57;99459.06;5033191;28;20059;-54
2021/01/24 09:34:11;;;;;;;20.02;9.50;;;;;;;0.98;94.08;99461.78;5040468;28;20041;-56
2021/01/24 09:36:38;;;;;;;20.70;9.05;;;;;;;0.96;93.72;99447.94;5040076;28;20409;-54
2021/01/24 09:39:06;;;;;;;18.50;9.25;;;;;;;1.12;93.18;99449.22;5041460;28;20049;-55
2021/01/24 09:41:34;;;;;;;20.83;9.23;;;;;;;1.33;92.26;99454.38;5039669;28;20068;-53
2021/01/24 09:44:01;;;;;;;19.58;9.45;;;;;;;1.16;92.91;99453.25;5040989;28;20036;-54
2021/01/24 09:46:29;;;;;;;17.52;8.95;;;;;;;1.11;92.59;99452.84;5046224;28;20420;-54
2021/01/24 09:48:56;;;;;;;18.25;9.13;;;;;;;1.23;93.49;99457.00;5045410;28;20052;-54
2021/01/24 09:51:23;;;;;;;22.15;10.35;;;;;;;1.41;92.71;99454.53;5040465;28;20231;-55
2021/01/24 09:53:51;;;;;;;24.02;11.10;;;;;;;1.35;92.78;99458.53;5043530;28;20152;-57
2021/01/24 09:56:18;;;;;;;16.75;9.48;;;;;;;1.36;91.82;99454.94;5043611;28;20045;-54
2021/01/24 09:58:45;;;;;;;17.17;9.13;;;;;;;1.45;91.32;99465.63;5037609;28;20037;-53
2021/01/24 10:01:12;;;;;;;17.67;9.43;;;;;;;1.53;91.23;99458.69;5037182;28;20053;-54
2021/01/24 10:03:40;;;;;;;20.38;10.23;;;;;;;1.33;91.67;99457.00;5040275;28;20060;-53
2021/01/24 10:06:08;;;;;;;22.02;10.90;;;;;;;1.02;93.35;99464.97;5040923;28;20038;-54
2021/01/24 10:08:35;;;;;;;25.63;10.93;;;;;;;1.00;93.26;99465.09;5044134;28;20465;-57
2021/01/24 10:11:02;;;;;;;18.15;9.75;;;;;;;1.01;94.06;99453.63;5041891;28;20048;-55
2021/01/24 10:13:29;;;;;;;21.90;9.88;;;;;;;1.11;93.75;99455.47;5041982;28;20076;-52
2021/01/24 10:15:56;;;;;;;36.22;12.60;;;;;;;1.19;93.63;99452.97;5044562;28;20041;-53
2021/01/24 10:18:24;;;;;;;19.23;10.48;;;;;;;0.97;92.89;99454.06;5043010;28;20098;-54
2021/01/24 10:20:52;;;;;;;25.08;10.45;;;;;;;1.13;93.48;99464.03;5046515;28;20051;-51
2021/01/24 10:23:21;;;;;;;19.45;9.55;;;;;;;1.02;93.44;99480.75;5041720;28;20041;-54
2021/01/24 10:25:50;;;;;;;22.75;11.35;;;;;;;1.24;93.13;99481.50;5046003;28;20134;-54
2021/01/24 10:28:17;;;;;;;19.17;10.30;;;;;;;0.95;93.16;99483.09;5042938;28;20055;-50
2021/01/24 10:30:45;;;;;;;19.10;9.70;;;;;;;1.41;92.00;99474.75;5041693;28;20601;-53
2021/01/24 10:33:13;;;;;;;24.42;10.18;;;;;;;1.45;91.67;99471.69;5041364;28;20349;-52
2021/01/24 10:35:40;;;;;;;15.85;8.73;;;;;;;1.05;92.19;99477.03;5044367;28;20098;-52
2021/01/24 10:38:08;;;;;;;15.77;8.07;;;;;;;1.45;91.89;99473.50;5045403;28;20092;-53
2021/01/24 10:40:35;;;;;;;17.95;9.02;;;;;;;1.55;91.54;99480.44;5045681;28;20047;-54
2021/01/24 10:43:02;;;;;;;19.98;9.70;;;;;;;1.71;91.20;99473.78;5039615;28;20099;-52
2021/01/24 10:45:31;;;;;;;19.48;9.35;;;;;;;2.06;89.91;99475.84;5042941;28;20048;-53
2021/01/24 10:48:00;;;;;;;20.02;9.15;;;;;;;1.95;89.19;99473.34;5044099;28;20376;-53
2021/01/24 10:50:27;;;;;;;18.38;8.73;;;;;;;2.32;88.16;99467.31;5039175;28;20155;-54
2021/01/24 10:52:54;;;;;;;16.92;8.52;;;;;;;2.28;87.18;99471.22;5042807;28;20032;-54
2021/01/24 10:55:23;;;;;;;14.65;7.43;;;;;;;2.50;86.61;99463.97;5047199;28;20040;-52
2021/01/24 10:57:50;;;;;;;17.15;8.63;;;;;;;2.40;85.29;99459.53;5042378;28;20065;-54
2021/01/24 11:00:17;;;;;;;15.63;7.97;;;;;;;2.45;85.32;99455.63;5044790;28;20045;-55
2021/01/24 11:02:44;;;;;;;18.45;7.70;;;;;;;1.92;87.47;99452.56;5042765;28;20045;-54
2021/01/24 11:05:11;;;;;;;13.00;7.53;;;;;;;1.71;88.81;99450.91;5044023;28;20482;-55
2021/01/24 11:07:38;;;;;;;18.20;8.18;;;;;;;1.81;88.66;99452.72;5046166;28;20045;-53
2021/01/24 11:10:07;;;;;;;16.88;8.20;;;;;;;1.48;89.57;99452.19;5042278;28;20045;-53
2021/01/24 11:12:35;;;;;;;14.57;7.35;;;;;;;1.40;90.54;99449.41;5039251;28;20046;-54
2021/01/24 11:15:03;;;;;;;20.48;10.35;;;;;;;1.33;90.75;99443.84;5040472;28;20049;-53
2021/01/24 11:17:31;;;;;;;15.43;8.43;;;;;;;1.37;91.51;99427.66;5041502;28;20048;-52
2021/01/24 11:19:58;;;;;;;21.35;11.43;;;;;;;1.22;91.39;99434.31;5043004;28;22024;-51
2021/01/24 11:22:25;;;;;;;21.45;10.30;;;;;;;1.44;91.28;99427.13;5039318;28;20071;-52